Time;durP1;ratioP1;P1;durP2;ratioP2;P2;SDS_P1;SDS_P2;PMS_P1;PMS_P2;Temp;Humidity;BMP_temperature;BMP_pressure;BME280_temperature;BME280_humidity;BME280_pressure;Samples;Min_cycle;Max_cycle;Signal;HPM_P1;HPM_P2
2023/01/11 00:01:31;;;;;;;;;;;8.50;99.90;;;;;;5054416;28;20412;-64
2023/01/11 00:03:57;;;;;;;;;;;8.50;99.90;;;;;;5052715;28;19920;-64
2023/01/11 00:06:22;;;;;;;;;;;8.50;99.90;;;;;;5054696;28;20286;-62
2023/01/11 00:08:48;;;;;;;;;;;8.50;99.90;;;;;;5054576;28;19921;-63
2023/01/11 00:11:15;;;;;;;;;;;8.50;99.90;;;;;;5053784;28;19947;-63
2023/01/11 00:13:42;;;;;;;;;;;8.50;99.90;;;;;;5052936;28;19921;-62
2023/01/11 00:16:08;;;;;;;;;;;8.60;99.90;;;;;;5053720;28;20382;-64
2023/01/11 00:18:34;;;;;;;;;;;8.50;99.90;;;;;;5053138;28;19942;-63
2023/01/11 00:21:06;;;;;;;;;;;8.60;99.90;;;;;;5052896;28;20010;-63
2023/01/11 00:23:33;;;;;;;;;;;8.50;99.90;;;;;;5053938;28;20011;-63
2023/01/11 00:26:01;;;;;;;;;;;8.60;99.90;;;;;;5053723;28;20393;-63
2023/01/11 00:28:26;;;;;;;;;;;8.80;99.90;;;;;;5054131;28;19921;-63
2023/01/11 00:30:52;;;;;;;;;;;8.70;99.90;;;;;;5053258;28;19940;-63
2023/01/11 00:33:17;;;;;;;;;;;8.70;99.90;;;;;;5053764;28;20000;-63
2023/01/11 00:35:43;;;;;;;;;;;8.70;99.90;;;;;;5054058;28;19924;-64
2023/01/11 00:38:42;;;;;;;;;;;8.70;99.90;;;;;;5052694;28;19921;-63
2023/01/11 00:40:54;;;;;;;;;;;8.70;99.90;;;;;;5053974;28;19928;-63
2023/01/11 00:48:48;;;;;;;;;;;8.80;99.90;;;;;;5053881;28;20015;-62
2023/01/11 00:51:13;;;;;;;;;;;8.80;99.90;;;;;;5053414;28;19971;-63
2023/01/11 00:53:39;;;;;;;;;;;8.80;99.90;;;;;;5053737;28;19975;-62
2023/01/11 00:56:05;;;;;;;;;;;8.80;99.90;;;;;;5053298;28;19920;-63
2023/01/11 00:58:30;;;;;;;;;;;8.90;99.90;;;;;;5053737;28;19921;-63
2023/01/11 01:00:56;;;;;;;;;;;8.90;99.90;;;;;;5053787;28;19920;-62
2023/01/11 01:03:21;;;;;;;;;;;8.90;99.90;;;;;;5052803;28;19921;-63
2023/01/11 01:05:47;;;;;;;;;;;9.00;99.90;;;;;;5053463;28;19921;-63
2023/01/11 01:08:12;;;;;;;;;;;9.00;99.90;;;;;;5053106;28;19920;-64
2023/01/11 01:10:38;;;;;;;;;;;9.00;99.90;;;;;;5019393;28;20267;-63
2023/01/11 01:15:48;;;;;;;;;;;9.00;99.90;;;;;;5053273;28;20389;-63
2023/01/11 01:18:14;;;;;;;;;;;9.00;99.90;;;;;;5052871;28;19920;-63
2023/01/11 01:20:39;;;;;;;;;;;9.00;99.90;;;;;;5052278;28;19972;-63
2023/01/11 01:23:05;;;;;;;;;;;9.00;99.90;;;;;;5053035;28;19974;-65
2023/01/11 01:25:30;;;;;;;;;;;9.00;99.90;;;;;;5052001;28;19928;-63
2023/01/11 01:27:56;;;;;;;;;;;9.10;99.90;;;;;;5053033;28;19944;-62
2023/01/11 01:30:21;;;;;;;;;;;9.00;99.90;;;;;;5052673;28;20011;-62
2023/01/11 01:32:47;;;;;;;;;;;9.00;99.90;;;;;;5035146;28;19927;-62
2023/01/11 01:35:12;;;;;;;;;;;9.10;99.90;;;;;;5052492;28;19928;-62
2023/01/11 01:37:38;;;;;;;;;;;9.10;99.90;;;;;;5051249;28;20414;-66
2023/01/11 01:40:04;;;;;;;;;;;9.20;99.90;;;;;;5052605;28;19927;-63
2023/01/11 01:42:30;;;;;;;;;;;9.20;99.90;;;;;;5051933;28;19921;-62
2023/01/11 01:45:14;;;;;;;;;;;9.20;99.90;;;;;;5051735;28;20023;-63
2023/01/11 01:47:44;;;;;;;;;;;9.30;99.90;;;;;;5052574;28;19944;-63
2023/01/11 01:50:16;;;;;;;;;;;9.30;99.90;;;;;;5052436;28;19921;-64
2023/01/11 01:52:43;;;;;;;;;;;9.40;99.90;;;;;;5052668;28;20325;-63
2023/01/11 01:55:11;;;;;;;;;;;9.40;99.90;;;;;;5052591;28;19920;-63
2023/01/11 01:57:38;;;;;;;;;;;9.50;99.90;;;;;;5052806;28;19944;-63
2023/01/11 02:00:05;;;;;;;;;;;9.50;99.90;;;;;;5051376;28;19921;-63
2023/01/11 02:02:30;;;;;;;;;;;9.50;99.90;;;;;;5051345;28;20583;-63
2023/01/11 02:04:56;;;;;;;;;;;9.60;99.90;;;;;;5052580;28;19928;-63
2023/01/11 02:07:28;;;;;;;;;;;9.60;99.90;;;;;;5050716;28;20018;-63
2023/01/11 02:10:03;;;;;;;;;;;9.60;99.90;;;;;;5052100;28;19921;-63
2023/01/11 02:12:34;;;;;;;;;;;9.60;99.90;;;;;;5052075;28;19920;-63
2023/01/11 02:15:01;;;;;;;;;;;9.70;99.90;;;;;;5052436;28;19925;-63
2023/01/11 02:17:26;;;;;;;;;;;9.60;99.90;;;;;;5050999;28;19924;-63
2023/01/11 02:19:56;;;;;;;;;;;9.60;99.90;;;;;;5051264;28;19931;-64
2023/01/11 02:22:40;;;;;;;;;;;9.70;99.90;;;;;;5051849;28;19972;-63
2023/01/11 02:25:08;;;;;;;;;;;9.70;99.90;;;;;;5052201;28;19966;-63
2023/01/11 02:27:46;;;;;;;;;;;9.80;99.90;;;;;;5051496;28;19975;-64
2023/01/11 02:30:29;;;;;;;;;;;9.70;99.90;;;;;;5051993;28;19943;-64
2023/01/11 02:33:00;;;;;;;;;;;9.80;99.90;;;;;;5052241;28;20316;-62
2023/01/11 02:35:45;;;;;;;;;;;9.80;99.90;;;;;;5050741;28;20282;-62
2023/01/11 02:38:27;;;;;;;;;;;9.90;99.90;;;;;;5050717;28;19921;-63
2023/01/11 02:41:06;;;;;;;;;;;9.80;99.90;;;;;;5051875;28;20279;-63
2023/01/11 02:46:43;;;;;;;;;;;9.90;99.90;;;;;;5051495;28;19971;-63
2023/01/11 02:49:31;;;;;;;;;;;9.90;99.90;;;;;;5051958;28;19976;-63
2023/01/11 02:52:05;;;;;;;;;;;9.80;99.90;;;;;;5051987;28;19921;-64
2023/01/11 02:54:32;;;;;;;;;;;9.90;99.90;;;;;;5050982;28;19990;-64
2023/01/11 02:56:59;;;;;;;;;;;9.90;99.90;;;;;;5055992;28;20340;-63
2023/01/11 02:59:31;;;;;;;;;;;9.90;99.90;;;;;;5054335;28;19979;-63
2023/01/11 03:01:58;;;;;;;;;;;9.90;99.90;;;;;;5055842;28;20156;-63
2023/01/11 03:04:28;;;;;;;;;;;9.90;99.90;;;;;;5054911;28;20011;-63
2023/01/11 03:07:13;;;;;;;;;;;9.90;99.90;;;;;;5054837;28;20019;-64
2023/01/11 03:10:02;;;;;;;;;;;9.90;99.90;;;;;;5053825;28;19929;-64
2023/01/11 03:12:50;;;;;;;;;;;9.90;99.90;;;;;;5043286;28;19924;-63
2023/01/11 03:15:16;;;;;;;;;;;10.00;99.90;;;;;;5054799;28;19920;-63
2023/01/11 03:17:50;;;;;;;;;;;9.90;99.90;;;;;;5055151;28;20032;-63
2023/01/11 03:20:21;;;;;;;;;;;10.00;99.90;;;;;;5054256;28;19920;-63
2023/01/11 03:23:06;;;;;;;;;;;9.90;99.90;;;;;;5055038;28;19920;-63
2023/01/11 03:25:50;;;;;;;;;;;9.90;99.90;;;;;;5055103;28;19975;-63
2023/01/11 03:28:24;;;;;;;;;;;10.00;99.90;;;;;;5055340;28;20328;-63
2023/01/11 03:31:21;;;;;;;;;;;10.00;99.90;;;;;;5055428;28;19924;-62
2023/01/11 03:33:47;;;;;;;;;;;10.00;99.90;;;;;;5020846;28;19920;-63
2023/01/11 03:36:16;;;;;;;;;;;10.00;99.90;;;;;;5055168;28;19927;-63
2023/01/11 03:38:46;;;;;;;;;;;10.00;99.90;;;;;;5054686;28;20021;-63
2023/01/11 03:41:18;;;;;;;;;;;10.00;99.90;;;;;;5037300;28;19921;-63
2023/01/11 03:43:45;;;;;;;;;;;10.10;99.90;;;;;;5054576;28;20104;-63
2023/01/11 03:46:12;;;;;;;;;;;10.00;99.90;;;;;;5054065;28;19920;-64
2023/01/11 03:48:46;;;;;;;;;;;10.10;99.90;;;;;;5054577;28;19983;-63
2023/01/11 03:51:14;;;;;;;;;;;10.00;99.90;;;;;;5055086;28;20251;-63
2023/01/11 03:53:43;;;;;;;;;;;10.10;99.90;;;;;;5053465;28;19921;-64
2023/01/11 03:56:10;;;;;;;;;;;10.10;99.90;;;;;;5054074;28;19971;-63
2023/01/11 03:58:36;;;;;;;;;;;10.20;99.90;;;;;;5054525;28;19928;-63
2023/01/11 04:01:02;;;;;;;;;;;10.20;99.90;;;;;;5054563;28;20124;-63
2023/01/11 04:03:28;;;;;;;;;;;10.20;99.90;;;;;;5052749;28;19921;-64
2023/01/11 04:05:56;;;;;;;;;;;10.30;99.90;;;;;;5054204;28;19928;-63
2023/01/11 04:08:22;;;;;;;;;;;10.20;99.90;;;;;;5053420;28;20289;-64
2023/01/11 04:10:47;;;;;;;;;;;10.20;99.90;;;;;;5054118;28;19916;-62
2023/01/11 04:13:13;;;;;;;;;;;10.30;99.90;;;;;;5053215;28;19920;-63
2023/01/11 04:15:39;;;;;;;;;;;10.30;99.90;;;;;;5054159;28;19920;-63
2023/01/11 04:18:04;;;;;;;;;;;10.40;99.90;;;;;;5052787;28;19943;-64
2023/01/11 04:20:31;;;;;;;;;;;10.40;99.90;;;;;;5053740;28;20360;-64
2023/01/11 04:22:56;;;;;;;;;;;10.40;99.90;;;;;;5053838;28;20362;-64
2023/01/11 04:25:22;;;;;;;;;;;10.30;99.90;;;;;;5052897;28;19928;-62
2023/01/11 04:27:48;;;;;;;;;;;10.30;99.90;;;;;;5053743;28;19928;-63
2023/01/11 04:30:13;;;;;;;;;;;10.30;99.90;;;;;;5054442;28;19921;-63
2023/01/11 04:32:39;;;;;;;;;;;10.30;99.90;;;;;;5053808;28;20370;-63
2023/01/11 04:35:05;;;;;;;;;;;10.30;99.90;;;;;;5054158;28;20358;-63
2023/01/11 04:37:30;;;;;;;;;;;10.20;99.90;;;;;;5054174;28;19964;-64
2023/01/11 04:39:56;;;;;;;;;;;10.10;99.90;;;;;;5052573;28;20008;-63
2023/01/11 04:42:23;;;;;;;;;;;10.10;99.90;;;;;;5054232;28;19925;-63
2023/01/11 04:44:49;;;;;;;;;;;9.90;99.90;;;;;;5053563;28;19960;-64
2023/01/11 04:47:15;;;;;;;;;;;9.90;99.90;;;;;;5054037;28;19921;-63
2023/01/11 04:49:41;;;;;;;;;;;9.90;99.90;;;;;;5053522;28;20022;-62
2023/01/11 04:52:08;;;;;;;;;;;9.80;99.90;;;;;;5053797;28;19921;-63
2023/01/11 04:54:34;;;;;;;;;;;9.60;99.90;;;;;;5053690;28;20300;-64
2023/01/11 04:56:59;;;;;;;;;;;9.70;99.90;;;;;;5053678;28;19928;-63
2023/01/11 04:59:25;;;;;;;;;;;9.60;99.90;;;;;;5053702;28;19924;-64
2023/01/11 05:01:50;;;;;;;;;;;9.60;99.90;;;;;;5052131;28;20045;-64
2023/01/11 05:04:16;;;;;;;;;;;9.50;99.90;;;;;;5053413;28;19920;-63
2023/01/11 05:06:42;;;;;;;;;;;9.50;99.90;;;;;;5053314;28;19964;-62
2023/01/11 05:09:14;;;;;;;;;;;9.50;99.90;;;;;;5053361;28;20384;-63
2023/01/11 05:11:40;;;;;;;;;;;9.50;99.90;;;;;;5052723;28;19921;-63
2023/01/11 05:14:05;;;;;;;;;;;9.60;99.90;;;;;;5052175;28;20035;-63
2023/01/11 05:16:31;;;;;;;;;;;9.50;99.90;;;;;;5052375;28;19925;-63
2023/01/11 05:18:57;;;;;;;;;;;9.60;99.90;;;;;;5050934;28;20354;-63
2023/01/11 05:21:24;;;;;;;;;;;9.60;99.90;;;;;;5051989;28;19921;-62
2023/01/11 05:23:50;;;;;;;;;;;9.60;99.90;;;;;;5052815;28;20278;-63
2023/01/11 05:26:17;;;;;;;;;;;9.60;99.90;;;;;;5053293;28;19920;-62
2023/01/11 05:28:43;;;;;;;;;;;9.60;99.90;;;;;;5052633;28;19944;-64
2023/01/11 05:31:09;;;;;;;;;;;9.70;99.90;;;;;;5035192;28;19921;-62
2023/01/11 05:33:34;;;;;;;;;;;9.60;99.90;;;;;;5053048;28;19920;-63
2023/01/11 05:36:01;;;;;;;;;;;9.60;99.90;;;;;;5051559;28;19923;-63
2023/01/11 05:38:27;;;;;;;;;;;9.70;99.90;;;;;;5052913;28;19973;-63
2023/01/11 05:41:00;;;;;;;;;;;9.70;99.90;;;;;;5052097;28;19924;-63
2023/01/11 05:43:26;;;;;;;;;;;9.70;99.90;;;;;;5051656;28;19927;-63
2023/01/11 05:45:52;;;;;;;;;;;9.70;99.90;;;;;;5052360;28;19927;-63
2023/01/11 05:48:18;;;;;;;;;;;9.70;99.90;;;;;;5052806;28;19960;-63
2023/01/11 05:50:48;;;;;;;;;;;9.70;99.90;;;;;;5052156;28;19971;-64
2023/01/11 05:53:13;;;;;;;;;;;9.70;99.90;;;;;;5052644;28;19924;-63
2023/01/11 05:55:39;;;;;;;;;;;9.70;99.90;;;;;;5052683;28;19928;-64
2023/01/11 05:58:05;;;;;;;;;;;9.70;99.90;;;;;;5052210;28;19921;-64
2023/01/11 06:00:31;;;;;;;;;;;9.70;99.90;;;;;;5052813;28;20309;-66
2023/01/11 06:02:58;;;;;;;;;;;9.70;99.90;;;;;;5052149;28;19920;-64
2023/01/11 06:05:24;;;;;;;;;;;9.70;99.90;;;;;;5052689;28;19960;-64
2023/01/11 06:07:50;;;;;;;;;;;9.70;99.90;;;;;;5052093;28;19928;-63
2023/01/11 06:10:15;;;;;;;;;;;9.80;99.90;;;;;;5051123;28;19968;-63
2023/01/11 06:12:41;;;;;;;;;;;9.60;99.90;;;;;;5052360;28;19932;-62
2023/01/11 06:15:07;;;;;;;;;;;9.70;99.90;;;;;;5050735;28;19921;-63
2023/01/11 06:17:32;;;;;;;;;;;9.60;99.90;;;;;;5052326;28;20082;-63
2023/01/11 06:19:58;;;;;;;;;;;9.60;99.90;;;;;;5051938;28;19920;-63
2023/01/11 06:22:24;;;;;;;;;;;9.50;99.90;;;;;;5050897;28;19977;-64
2023/01/11 06:24:49;;;;;;;;;;;9.50;99.90;;;;;;5051774;28;20019;-63
2023/01/11 06:27:16;;;;;;;;;;;9.60;99.90;;;;;;5052040;28;19920;-64
2023/01/11 06:29:42;;;;;;;;;;;9.50;99.90;;;;;;5050508;28;19931;-63
2023/01/11 06:32:07;;;;;;;;;;;9.60;99.90;;;;;;5050687;28;20002;-63
2023/01/11 06:34:33;;;;;;;;;;;9.50;99.90;;;;;;5051146;28;19921;-63
2023/01/11 06:36:58;;;;;;;;;;;9.50;99.90;;;;;;5051787;28;19987;-62
2023/01/11 06:39:24;;;;;;;;;;;9.50;99.90;;;;;;5034377;28;20385;-62
2023/01/11 06:41:50;;;;;;;;;;;9.50;99.90;;;;;;5051673;28;19920;-65
2023/01/11 06:44:15;;;;;;;;;;;9.50;99.90;;;;;;5050959;28;19920;-63
2023/01/11 06:46:41;;;;;;;;;;;9.50;99.90;;;;;;5051286;28;19921;-63
2023/01/11 06:49:06;;;;;;;;;;;9.50;99.90;;;;;;5033024;28;19928;-63
2023/01/11 06:51:32;;;;;;;;;;;9.50;99.90;;;;;;5050966;28;19929;-63
2023/01/11 06:53:57;;;;;;;;;;;9.50;99.90;;;;;;5050336;28;19927;-62
2023/01/11 06:56:23;;;;;;;;;;;9.50;99.90;;;;;;5051715;28;19943;-63
2023/01/11 06:58:49;;;;;;;;;;;9.50;99.90;;;;;;5050508;28;20282;-63
2023/01/11 07:01:15;;;;;;;;;;;9.50;99.90;;;;;;5050509;28;19935;-63
2023/01/11 07:03:41;;;;;;;;;;;9.50;99.90;;;;;;5051493;28;19921;-63
2023/01/11 07:06:06;;;;;;;;;;;9.50;99.90;;;;;;5051281;28;19952;-63
2023/01/11 07:08:32;;;;;;;;;;;9.40;99.90;;;;;;5051716;28;20018;-64
2023/01/11 07:10:57;;;;;;;;;;;9.50;99.90;;;;;;5051417;28;19943;-64
2023/01/11 07:13:23;;;;;;;;;;;9.50;99.90;;;;;;5033733;28;19921;-64
2023/01/11 07:15:49;;;;;;;;;;;9.40;99.90;;;;;;5051667;28;19990;-63
2023/01/11 07:18:16;;;;;;;;;;;9.40;99.90;;;;;;5050166;28;19991;-64
2023/01/11 07:20:41;;;;;;;;;;;9.40;99.90;;;;;;5050327;28;20020;-64
2023/01/11 07:23:07;;;;;;;;;;;9.30;99.90;;;;;;5050154;28;20358;-64
2023/01/11 07:25:33;;;;;;;;;;;9.30;99.90;;;;;;5051522;28;19927;-64
2023/01/11 07:27:59;;;;;;;;;;;9.30;99.90;;;;;;5051116;28;19925;-64
2023/01/11 07:30:27;;;;;;;;;;;9.20;99.90;;;;;;5050009;28;19928;-64
2023/01/11 07:32:52;;;;;;;;;;;9.30;99.90;;;;;;5051527;28;19932;-64
2023/01/11 07:35:18;;;;;;;;;;;9.30;99.90;;;;;;5049884;28;19921;-65
2023/01/11 07:37:44;;;;;;;;;;;9.30;99.90;;;;;;5051401;28;20400;-63
2023/01/11 07:40:10;;;;;;;;;;;9.30;99.90;;;;;;5049581;28;20356;-64
2023/01/11 07:45:19;;;;;;;;;;;9.30;99.90;;;;;;5054597;28;19928;-64
2023/01/11 07:47:48;;;;;;;;;;;9.20;99.90;;;;;;5053436;28;19921;-64
2023/01/11 07:50:13;;;;;;;;;;;9.30;99.90;;;;;;5053281;28;19921;-64
2023/01/11 07:52:45;;;;;;;;;;;9.20;99.90;;;;;;5053774;28;19921;-64
2023/01/11 07:55:10;;;;;;;;;;;9.20;99.90;;;;;;5054467;28;19928;-64
2023/01/11 07:57:36;;;;;;;;;;;9.20;99.90;;;;;;5055025;28;19921;-64
2023/01/11 08:00:02;;;;;;;;;;;9.30;99.90;;;;;;5054145;28;19924;-65
2023/01/11 08:02:27;;;;;;;;;;;9.20;99.90;;;;;;5053233;28;19929;-64
2023/01/11 08:04:53;;;;;;;;;;;9.20;99.90;;;;;;5036288;28;19920;-63
2023/01/11 08:07:18;;;;;;;;;;;9.20;99.90;;;;;;5054067;28;19978;-65
2023/01/11 08:09:44;;;;;;;;;;;9.20;99.90;;;;;;5054277;28;19921;-64
2023/01/11 08:14:54;;;;;;;;;;;9.20;99.90;;;;;;5054155;28;20440;-64
2023/01/11 08:17:19;;;;;;;;;;;9.20;99.90;;;;;;5052759;28;20012;-63
2023/01/11 08:19:45;;;;;;;;;;;9.20;99.90;;;;;;5054124;28;19920;-64
2023/01/11 08:22:11;;;;;;;;;;;9.20;99.90;;;;;;5053242;28;19964;-64
2023/01/11 08:24:36;;;;;;;;;;;9.20;99.90;;;;;;5053710;28;19928;-65
2023/01/11 08:27:02;;;;;;;;;;;9.20;99.90;;;;;;5052885;28;19994;-64
2023/01/11 08:29:28;;;;;;;;;;;8.90;99.90;;;;;;5052493;28;19920;-64
2023/01/11 08:31:53;;;;;;;;;;;9.20;99.90;;;;;;5054047;28;19928;-63
2023/01/11 08:34:19;;;;;;;;;;;9.10;99.90;;;;;;5052420;28;19920;-63
2023/01/11 08:36:45;;;;;;;;;;;9.10;99.90;;;;;;5053910;28;19920;-63
2023/01/11 08:39:10;;;;;;;;;;;9.00;99.90;;;;;;5053508;28;20278;-64
2023/01/11 08:41:37;;;;;;;;;;;9.10;99.90;;;;;;5052807;28;19974;-64
2023/01/11 08:44:03;;;;;;;;;;;9.00;99.90;;;;;;5052493;28;19932;-64
2023/01/11 08:46:28;;;;;;;;;;;9.00;99.90;;;;;;5053181;28;19920;-64
2023/01/11 08:48:54;;;;;;;;;;;9.00;99.90;;;;;;5052336;28;19921;-64
2023/01/11 08:51:19;;;;;;;;;;;9.00;99.90;;;;;;5053148;28;19921;-64
2023/01/11 08:53:45;;;;;;;;;;;9.00;99.90;;;;;;5053552;28;19928;-62
2023/01/11 08:56:11;;;;;;;;;;;9.00;99.90;;;;;;5053125;28;19932;-63
2023/01/11 08:58:36;;;;;;;;;;;8.90;99.90;;;;;;5052945;28;19928;-63
2023/01/11 09:01:03;;;;;;;;;;;8.90;99.90;;;;;;5053387;28;19924;-62
2023/01/11 09:03:29;;;;;;;;;;;8.90;99.90;;;;;;5051623;28;19917;-63
2023/01/11 09:05:55;;;;;;;;;;;8.90;99.90;;;;;;5053426;28;20416;-63
2023/01/11 09:08:21;;;;;;;;;;;8.90;99.90;;;;;;5052996;28;19970;-64
2023/01/11 09:10:47;;;;;;;;;;;8.90;99.90;;;;;;5051804;28;20378;-63
2023/01/11 09:13:12;;;;;;;;;;;8.90;99.90;;;;;;5052803;28;19920;-63
2023/01/11 09:15:38;;;;;;;;;;;8.90;99.90;;;;;;5051562;28;19921;-63
2023/01/11 09:18:04;;;;;;;;;;;9.00;99.90;;;;;;5053073;28;19921;-63
2023/01/11 09:20:29;;;;;;;;;;;9.00;99.90;;;;;;5052809;28;20008;-63
2023/01/11 09:22:55;;;;;;;;;;;9.00;99.90;;;;;;5053063;28;19927;-63
2023/01/11 09:25:21;;;;;;;;;;;9.00;99.90;;;;;;5051396;28;20260;-63
2023/01/11 09:27:48;;;;;;;;;;;9.00;99.90;;;;;;5051975;28;19927;-63
2023/01/11 09:30:15;;;;;;;;;;;8.90;99.90;;;;;;5051027;28;20289;-64
2023/01/11 09:32:40;;;;;;;;;;;8.90;99.90;;;;;;5051967;28;20404;-66
2023/01/11 09:35:06;;;;;;;;;;;8.90;99.90;;;;;;5046733;28;19990;-63
2023/01/11 09:37:32;;;;;;;;;;;8.80;99.90;;;;;;5049622;28;19997;-63
2023/01/11 09:39:58;;;;;;;;;;;8.80;99.90;;;;;;5049470;28;19928;-65
2023/01/11 09:42:28;;;;;;;;;;;8.80;99.90;;;;;;5031147;28;19927;-63
2023/01/11 09:44:56;;;;;;;;;;;8.90;99.90;;;;;;5046685;28;20011;-65
2023/01/11 09:47:40;;;;;;;;;;;8.90;99.90;;;;;;5049500;28;19927;-65
2023/01/11 09:50:11;;;;;;;;;;;9.00;99.90;;;;;;5052146;28;19927;-63
2023/01/11 09:52:38;;;;;;;;;;;9.00;99.90;;;;;;5047774;28;19925;-65
2023/01/11 09:55:05;;;;;;;;;;;9.00;99.90;;;;;;5050943;28;19924;-62
2023/01/11 09:57:30;;;;;;;;;;;9.00;99.90;;;;;;5050386;28;20007;-64
2023/01/11 10:00:03;;;;;;;;;;;9.10;99.90;;;;;;5046465;28;19920;-64
2023/01/11 10:02:29;;;;;;;;;;;9.10;99.90;;;;;;5049429;28;19928;-64
2023/01/11 10:05:17;;;;;;;;;;;9.20;99.90;;;;;;5050679;28;20366;-65
2023/01/11 10:07:42;;;;;;;;;;;9.30;99.90;;;;;;5049167;28;19920;-64
2023/01/11 10:10:23;;;;;;;;;;;9.30;99.90;;;;;;5049057;28;19927;-65
2023/01/11 10:12:55;;;;;;;;;;;9.30;99.90;;;;;;5052048;28;20274;-64
2023/01/11 10:15:39;;;;;;;;;;;9.40;99.90;;;;;;5051646;28;19924;-64
2023/01/11 10:18:16;;;;;;;;;;;9.40;99.90;;;;;;5049276;28;19928;-64
2023/01/11 10:20:46;;;;;;;;;;;9.40;99.90;;;;;;5050244;28;19924;-64
2023/01/11 10:23:26;;;;;;;;;;;9.40;99.90;;;;;;5051267;28;20098;-65
2023/01/11 10:25:55;;;;;;;;;;;9.40;99.90;;;;;;5052119;28;20008;-64
2023/01/11 10:28:23;;;;;;;;;;;9.40;99.90;;;;;;5051478;28;19927;-64
2023/01/11 10:39:31;;;;;;;;;;;9.50;99.90;;;;;;5052054;28;19920;-63
2023/01/11 10:42:09;;;;;;;;;;;9.60;99.90;;;;;;5051905;28;19920;-64
2023/01/11 10:44:37;;;;;;;;;;;9.60;99.90;;;;;;5051095;28;20019;-62
2023/01/11 10:47:04;;;;;;;;;;;9.60;99.90;;;;;;5050591;28;20248;-64
2023/01/11 10:49:48;;;;;;;;;;;9.70;99.90;;;;;;5051256;28;19921;-63
2023/01/11 10:52:26;;;;;;;;;;;9.70;99.90;;;;;;5051366;28;20378;-63
2023/01/11 10:54:56;;;;;;;;;;;9.70;99.90;;;;;;5034226;28;19925;-62
2023/01/11 10:57:40;;;;;;;;;;;9.70;99.90;;;;;;5051305;28;20362;-65
2023/01/11 11:00:31;;;;;;;;;;;9.70;99.90;;;;;;5051416;28;19959;-64
2023/01/11 11:03:14;;;;;;;;;;;9.70;99.90;;;;;;5033879;28;20012;-65
2023/01/11 11:05:49;;;;;;;;;;;9.70;99.90;;;;;;5049207;28;19927;-64
2023/01/11 11:08:26;;;;;;;;;;;9.80;99.90;;;;;;5050665;28;19957;-65
2023/01/11 11:10:59;;;;;;;;;;;9.70;99.90;;;;;;5050479;28;19935;-65
2023/01/11 11:13:40;;;;;;;;;;;9.70;99.90;;;;;;5033636;28;19921;-67
2023/01/11 11:16:06;;;;;;;;;;;9.60;99.90;;;;;;5051807;28;19927;-64
2023/01/11 11:18:31;;;;;;;;;;;9.70;99.90;;;;;;5054210;28;20385;-64
2023/01/11 11:21:01;;;;;;;;;;;9.70;99.90;;;;;;5055613;28;20112;-64
2023/01/11 11:23:27;;;;;;;;;;;9.70;99.90;;;;;;5055126;28;20019;-65
2023/01/11 11:25:55;;;;;;;;;;;9.70;99.90;;;;;;5055490;28;20007;-64
2023/01/11 11:28:30;;;;;;;;;;;9.60;99.90;;;;;;5053865;28;20366;-63
2023/01/11 11:30:58;;;;;;;;;;;9.70;99.90;;;;;;5055077;28;19967;-64
2023/01/11 11:33:52;;;;;;;;;;;9.70;99.90;;;;;;5055077;28;19986;-64
2023/01/11 11:36:18;;;;;;;;;;;9.70;99.90;;;;;;5041608;28;19927;-64
2023/01/11 11:39:00;;;;;;;;;;;9.70;99.90;;;;;;5054630;28;20293;-64
2023/01/11 11:41:26;;;;;;;;;;;9.60;99.90;;;;;;5054688;28;19920;-65
2023/01/11 11:44:06;;;;;;;;;;;9.70;99.90;;;;;;5054760;28;19932;-64
2023/01/11 11:46:32;;;;;;;;;;;9.60;99.90;;;;;;5054784;28;20285;-65
2023/01/11 11:49:16;;;;;;;;;;;9.60;99.90;;;;;;5053897;28;19921;-65
2023/01/11 11:51:43;;;;;;;;;;;9.50;99.90;;;;;;5053416;28;19925;-65
2023/01/11 11:54:27;;;;;;;;;;;9.50;99.90;;;;;;5053883;28;19963;-65
2023/01/11 11:56:54;;;;;;;;;;;9.50;99.90;;;;;;5054651;28;20344;-64
2023/01/11 11:59:21;;;;;;;;;;;9.50;99.90;;;;;;5054830;28;19964;-65
2023/01/11 12:02:00;;;;;;;;;;;9.50;99.90;;;;;;5054039;28;20374;-65
2023/01/11 12:04:46;;;;;;;;;;;9.50;99.90;;;;;;5054565;28;20286;-65
2023/01/11 12:07:27;;;;;;;;;;;9.50;99.90;;;;;;5054496;28;20458;-64
2023/01/11 12:09:55;;;;;;;;;;;9.60;99.90;;;;;;5054177;28;19928;-63
2023/01/11 12:12:21;;;;;;;;;;;9.50;99.90;;;;;;5053592;28;20330;-65
2023/01/11 12:15:05;;;;;;;;;;;9.60;99.90;;;;;;5054325;28;19968;-64
2023/01/11 12:17:31;;;;;;;;;;;9.60;99.90;;;;;;5053087;28;20393;-65
2023/01/11 12:19:56;;;;;;;;;;;9.60;99.90;;;;;;5054018;28;19921;-65
2023/01/11 12:22:26;;;;;;;;;;;9.60;99.90;;;;;;5054216;28;19953;-65
2023/01/11 12:25:01;;;;;;;;;;;9.60;99.90;;;;;;5036289;28;20021;-65
2023/01/11 12:27:27;;;;;;;;;;;9.70;99.90;;;;;;5053757;28;19921;-64
2023/01/11 12:30:07;;;;;;;;;;;9.70;99.90;;;;;;5053732;28;19928;-65
2023/01/11 12:32:39;;;;;;;;;;;9.70;99.90;;;;;;5054129;28;19982;-64
2023/01/11 12:35:20;;;;;;;;;;;9.80;99.90;;;;;;5054022;28;19921;-65
2023/01/11 12:37:55;;;;;;;;;;;9.80;99.90;;;;;;5053688;28;19921;-65
2023/01/11 12:40:23;;;;;;;;;;;9.80;99.90;;;;;;5052800;28;19927;-64
2023/01/11 12:42:55;;;;;;;;;;;9.80;99.90;;;;;;5053540;28;20058;-64
2023/01/11 12:45:38;;;;;;;;;;;9.80;99.90;;;;;;5053943;28;19978;-66
2023/01/11 12:48:04;;;;;;;;;;;9.80;99.90;;;;;;5053917;28;20387;-65
2023/01/11 12:50:40;;;;;;;;;;;9.80;99.90;;;;;;5035450;28;19929;-65
2023/01/11 12:53:31;;;;;;;;;;;9.80;99.90;;;;;;5053377;28;20285;-63
2023/01/11 12:55:57;;;;;;;;;;;9.80;99.90;;;;;;5028651;28;19921;-66
2023/01/11 12:58:28;;;;;;;;;;;9.90;99.90;;;;;;5053086;28;19947;-64
2023/01/11 13:01:02;;;;;;;;;;;9.90;99.90;;;;;;5051909;28;20015;-65
2023/01/11 13:03:46;;;;;;;;;;;9.90;99.90;;;;;;5053359;28;20366;-65
2023/01/11 13:06:14;;;;;;;;;;;9.90;99.90;;;;;;5052853;28;19928;-65
2023/01/11 13:08:43;;;;;;;;;;;9.90;99.90;;;;;;5052937;28;19920;-66
2023/01/11 13:11:33;;;;;;;;;;;9.90;99.90;;;;;;5051915;28;19921;-65
2023/01/11 13:14:02;;;;;;;;;;;9.90;99.90;;;;;;5053043;28;19921;-66
2023/01/11 13:16:33;;;;;;;;;;;9.90;99.90;;;;;;5052985;28;19975;-65
2023/01/11 13:19:06;;;;;;;;;;;9.90;99.90;;;;;;5052642;28;19921;-65
2023/01/11 13:21:42;;;;;;;;;;;9.90;99.90;;;;;;5053274;28;19974;-66
2023/01/11 13:24:11;;;;;;;;;;;9.90;99.90;;;;;;5053089;28;19921;-67
2023/01/11 13:26:46;;;;;;;;;;;9.90;99.90;;;;;;5053038;28;19994;-65
2023/01/11 13:29:14;;;;;;;;;;;9.90;99.90;;;;;;5051765;28;20376;-65
2023/01/11 13:31:41;;;;;;;;;;;9.80;99.90;;;;;;5051512;28;19920;-64
2023/01/11 13:34:13;;;;;;;;;;;9.80;99.90;;;;;;5052524;28;19920;-66
2023/01/11 13:36:41;;;;;;;;;;;9.80;99.90;;;;;;5052494;28;19925;-65
2023/01/11 13:39:17;;;;;;;;;;;9.80;99.90;;;;;;5050478;28;19928;-65
2023/01/11 13:41:47;;;;;;;;;;;9.80;99.90;;;;;;5052031;28;20382;-65
2023/01/11 13:44:22;;;;;;;;;;;9.90;99.90;;;;;;5053065;28;19924;-65
2023/01/11 13:46:48;;;;;;;;;;;9.90;99.90;;;;;;5051299;28;19931;-66
2023/01/11 13:49:17;;;;;;;;;;;9.90;99.90;;;;;;5035159;28;19920;-66
2023/01/11 13:51:55;;;;;;;;;;;9.90;99.90;;;;;;5051833;28;20011;-65
2023/01/11 13:54:20;;;;;;;;;;;9.90;99.90;;;;;;5052681;28;19920;-65
2023/01/11 13:57:09;;;;;;;;;;;9.90;99.90;;;;;;5052539;28;20212;-66
2023/01/11 13:59:45;;;;;;;;;;;9.90;99.90;;;;;;5052292;28;20336;-65
2023/01/11 14:02:36;;;;;;;;;;;9.90;99.90;;;;;;5052558;28;19921;-65
2023/01/11 14:05:06;;;;;;;;;;;9.80;99.90;;;;;;5032744;28;19931;-65
2023/01/11 14:07:38;;;;;;;;;;;9.80;99.90;;;;;;5052642;28;19931;-65
2023/01/11 14:10:22;;;;;;;;;;;9.80;99.90;;;;;;5051983;28;20378;-66
2023/01/11 14:12:54;;;;;;;;;;;9.80;99.90;;;;;;5051272;28;19928;-66
2023/01/11 14:15:19;;;;;;;;;;;9.70;99.90;;;;;;5052613;28;20015;-65
2023/01/11 14:17:56;;;;;;;;;;;9.70;99.90;;;;;;5052311;28;20417;-65
2023/01/11 14:20:44;;;;;;;;;;;9.70;99.90;;;;;;5052641;28;19921;-65
2023/01/11 14:23:12;;;;;;;;;;;9.70;99.90;;;;;;5013888;28;19974;-66
2023/01/11 14:25:46;;;;;;;;;;;9.60;99.90;;;;;;5052322;28;19921;-65
2023/01/11 14:28:15;;;;;;;;;;;9.60;99.90;;;;;;5050814;28;19924;-67
2023/01/11 14:30:49;;;;;;;;;;;9.50;99.90;;;;;;5052305;28;19921;-64
2023/01/11 14:33:17;;;;;;;;;;;9.50;99.90;;;;;;5052239;28;20239;-65
2023/01/11 14:35:49;;;;;;;;;;;9.40;99.90;;;;;;5052544;28;19987;-66
2023/01/11 14:38:17;;;;;;;;;;;9.40;99.90;;;;;;5050717;28;19921;-66
2023/01/11 14:40:52;;;;;;;;;;;9.40;99.90;;;;;;5034508;28;19984;-65
2023/01/11 14:43:24;;;;;;;;;;;9.40;99.90;;;;;;5034683;28;19928;-65
2023/01/11 14:46:08;;;;;;;;;;;9.40;99.90;;;;;;5052115;28;19921;-65
2023/01/11 14:48:40;;;;;;;;;;;9.40;99.90;;;;;;5052192;28;19927;-66
2023/01/11 14:51:19;;;;;;;;;;;9.30;99.90;;;;;;5054984;28;19921;-65
2023/01/11 14:53:48;;;;;;;;;;;9.30;99.90;;;;;;5038836;28;19968;-65
2023/01/11 14:56:32;;;;;;;;;;;9.30;99.90;;;;;;5055786;28;19920;-65
2023/01/11 14:59:06;;;;;;;;;;;9.20;99.90;;;;;;5054667;28;19971;-66
2023/01/11 15:01:50;;;;;;;;;;;9.20;99.90;;;;;;5055947;28;19925;-65
2023/01/11 15:04:20;;;;;;;;;;;9.20;99.90;;;;;;5055016;28;19924;-66
2023/01/11 15:06:53;;;;;;;;;;;9.20;99.90;;;;;;5054526;28;19920;-65
2023/01/11 15:09:37;;;;;;;;;;;9.20;99.90;;;;;;5056083;28;19920;-65